createdAt,value
2022-08-14T09:04:14.724Z,15.73
2022-08-14T09:09:22.624Z,16.20
2022-08-14T09:14:30.669Z,16.25
2022-08-14T09:19:37.980Z,16.32
2022-08-14T09:24:48.323Z,16.62
2022-08-14T09:29:54.082Z,16.80
2022-08-14T09:35:11.009Z,16.95
2022-08-14T09:40:37.209Z,17.01
2022-08-14T09:45:53.328Z,16.98
2022-08-14T09:56:10.096Z,17.39
2022-08-14T10:01:16.815Z,17.58
2022-08-14T10:06:28.247Z,17.75
2022-08-14T10:11:36.076Z,18.48
2022-08-14T10:16:44.116Z,19.65
2022-08-14T10:23:15.335Z,21.70
2022-08-14T10:27:29.903Z,22.28
2022-08-14T10:32:51.864Z,22.16
2022-08-14T10:38:02.622Z,21.35
2022-08-14T10:43:24.063Z,21.03
2022-08-14T10:48:38.173Z,21.91
2022-08-14T10:53:56.726Z,21.97
2022-08-14T10:59:05.227Z,21.12
2022-08-14T11:04:30.236Z,20.83
2022-08-14T11:09:57.513Z,21.27
2022-08-14T11:15:02.847Z,21.38
2022-08-14T11:20:14.002Z,20.87
2022-08-14T11:25:24.613Z,20.56
2022-08-14T11:30:50.487Z,20.39
2022-08-14T11:36:01.823Z,20.90
2022-08-14T11:41:08.442Z,20.60
2022-08-14T11:46:17.808Z,20.72
2022-08-14T11:51:36.073Z,21.03
2022-08-14T11:56:42.735Z,21.16
2022-08-14T12:01:47.107Z,20.97
2022-08-14T12:06:55.850Z,21.32
2022-08-14T12:12:02.043Z,21.63
2022-08-14T12:17:12.576Z,21.69
2022-08-14T12:22:29.807Z,21.69
2022-08-14T12:27:46.677Z,21.88
2022-08-14T12:32:57.930Z,21.46
2022-08-14T12:38:02.603Z,22.03
2022-08-14T12:43:09.990Z,22.18
2022-08-14T12:48:21.202Z,21.57
2022-08-14T12:53:38.936Z,20.94
2022-08-14T12:58:52.122Z,20.87
2022-08-14T13:04:10.130Z,20.76
2022-08-14T13:09:16.371Z,20.92
2022-08-14T13:14:29.868Z,21.00
2022-08-14T13:19:34.681Z,20.87
2022-08-14T13:24:40.318Z,20.88
2022-08-14T13:29:46.717Z,20.78
2022-08-14T13:34:52.516Z,20.66
2022-08-14T13:39:57.808Z,20.60
2022-08-14T13:45:07.066Z,20.39
2022-08-14T13:50:14.132Z,20.44
2022-08-14T13:55:25.567Z,20.35
2022-08-14T14:00:35.684Z,20.36
2022-08-14T14:05:52.674Z,20.17
2022-08-14T14:10:58.424Z,20.42
2022-08-14T14:16:06.267Z,20.23
2022-08-14T14:21:11.058Z,20.21
2022-08-14T14:26:23.117Z,20.29
2022-08-14T14:31:31.086Z,19.94
2022-08-14T14:36:37.393Z,19.66
2022-08-14T14:41:47.244Z,19.61
2022-08-14T14:47:01.642Z,19.52
2022-08-14T14:52:06.503Z,19.71
2022-08-14T14:57:14.006Z,19.97
2022-08-14T15:02:33.623Z,20.16
2022-08-14T15:07:38.042Z,20.56
2022-08-14T15:12:56.418Z,20.65
2022-08-14T15:18:03.073Z,20.65
2022-08-14T15:23:12.564Z,20.28
2022-08-14T15:28:21.323Z,20.24
2022-08-14T15:34:13.271Z,20.03
2022-08-14T15:39:09.555Z,19.68
2022-08-14T15:44:24.794Z,19.74
2022-08-14T15:49:34.635Z,19.45
2022-08-14T15:54:39.194Z,19.39
2022-08-14T16:00:01.043Z,19.39
2022-08-14T16:05:08.102Z,19.38
2022-08-14T16:10:29.767Z,19.50
2022-08-14T16:15:34.888Z,19.16
2022-08-14T16:20:44.764Z,19.21
2022-08-14T16:25:52.681Z,19.17
2022-08-14T16:30:57.092Z,18.94
2022-08-14T16:48:03.955Z,18.55
2022-08-14T16:53:28.788Z,18.47
2022-08-14T16:58:40.089Z,18.28
2022-08-14T17:04:04.630Z,18.16
2022-08-14T17:09:25.444Z,17.89
2022-08-14T17:14:55.052Z,17.70
2022-08-14T17:20:02.454Z,17.39
2022-08-14T17:25:29.943Z,17.20
2022-08-14T17:30:50.112Z,17.15
2022-08-14T17:36:21.140Z,17.08
2022-08-14T17:41:35.998Z,17.05
2022-08-14T17:46:43.484Z,17.14
2022-08-14T17:52:07.690Z,17.19
2022-08-14T17:57:23.216Z,17.04
2022-08-14T18:02:31.101Z,17.02
2022-08-14T18:07:59.211Z,16.84
2022-08-14T18:13:02.641Z,16.73
2022-08-14T18:18:09.158Z,16.67
2022-08-14T18:23:15.188Z,16.55
2022-08-14T18:28:48.281Z,16.38
2022-08-14T18:33:54.126Z,16.32
2022-08-14T18:39:23.394Z,16.12
2022-08-14T18:45:15.488Z,16.16
2022-08-14T18:50:26.783Z,16.01
2022-08-14T18:55:53.872Z,16.07
2022-08-14T19:01:00.770Z,15.99
2022-08-14T19:06:06.404Z,15.84
2022-08-14T19:11:43.278Z,15.84
2022-08-14T19:16:53.688Z,15.83
2022-08-14T19:21:58.594Z,15.83
2022-08-14T19:27:37.425Z,15.81
2022-08-14T19:32:43.405Z,15.68
2022-08-14T19:37:52.808Z,15.93
2022-08-14T19:42:59.288Z,15.76
2022-08-14T19:48:11.688Z,15.60
2022-08-14T19:53:17.247Z,15.45
2022-08-14T19:58:27.950Z,15.40
2022-08-14T20:04:00.308Z,15.30
2022-08-14T20:11:04.629Z,15.37
2022-08-14T20:14:37.411Z,15.25
2022-08-14T20:19:43.173Z,15.13
2022-08-14T20:24:47.741Z,14.88
2022-08-14T20:30:29.499Z,14.89
2022-08-14T20:35:37.987Z,14.95
2022-08-14T20:40:50.289Z,14.84
2022-08-14T20:45:54.704Z,14.83
2022-08-14T20:51:20.900Z,14.68
2022-08-14T20:56:30.504Z,14.74
2022-08-14T21:01:38.648Z,14.71
2022-08-14T21:07:23.434Z,14.76
2022-08-14T21:12:07.123Z,15.16
2022-08-14T21:17:37.410Z,15.50
2022-08-14T21:22:45.150Z,15.78
2022-08-14T21:27:56.989Z,15.84
2022-08-14T21:33:04.769Z,15.90
2022-08-14T21:38:18.047Z,15.57
2022-08-14T21:43:24.219Z,15.13
2022-08-14T21:48:31.992Z,14.88
2022-08-14T21:53:36.829Z,14.83
2022-08-14T21:59:04.682Z,14.68
2022-08-14T22:04:33.280Z,14.67
2022-08-14T22:09:36.364Z,14.71
2022-08-14T22:14:43.445Z,14.66
2022-08-14T22:19:54.864Z,14.65
2022-08-14T22:25:01.371Z,14.52
2022-08-14T22:30:09.514Z,14.57
2022-08-14T22:35:18.752Z,14.66
2022-08-14T22:40:58.921Z,14.45
2022-08-14T22:45:55.693Z,14.47
2022-08-14T22:51:02.084Z,14.43
2022-08-14T22:56:06.921Z,14.38
2022-08-14T23:01:56.355Z,14.30
2022-08-14T23:07:02.435Z,14.19
2022-08-14T23:12:28.396Z,14.14
2022-08-14T23:17:39.379Z,13.94
2022-08-14T23:22:47.422Z,13.99
2022-08-14T23:28:03.246Z,13.90
2022-08-14T23:33:08.019Z,13.84
2022-08-14T23:38:31.006Z,13.98
2022-08-14T23:43:35.488Z,13.78
2022-08-14T23:48:40.564Z,13.75
2022-08-14T23:53:52.988Z,13.60
2022-08-14T23:58:57.305Z,13.54
